sensor_id;sensor_type;location;lat;lon;timestamp;temperature;humidity
55064;DHT22;40963;52.168;21.296;2022-11-20T00:00:45;-5.00;99.90
55064;DHT22;40963;52.168;21.296;2022-11-20T00:03:11;-5.00;99.90
55064;DHT22;40963;52.168;21.296;2022-11-20T00:05:36;-5.00;99.90
55064;DHT22;40963;52.168;21.296;2022-11-20T00:08:02;-5.00;99.90
55064;DHT22;40963;52.168;21.296;2022-11-20T00:10:27;-5.00;99.90
55064;DHT22;40963;52.168;21.296;2022-11-20T00:12:53;-5.10;99.90
55064;DHT22;40963;52.168;21.296;2022-11-20T00:15:19;-5.10;99.90
55064;DHT22;40963;52.168;21.296;2022-11-20T00:17:44;-5.10;99.90
55064;DHT22;40963;52.168;21.296;2022-11-20T00:20:10;-5.10;99.90
55064;DHT22;40963;52.168;21.296;2022-11-20T00:22:36;-5.10;99.90
55064;DHT22;40963;52.168;21.296;2022-11-20T00:25:02;-5.10;99.90
55064;DHT22;40963;52.168;21.296;2022-11-20T00:27:27;-5.20;99.90
55064;DHT22;40963;52.168;21.296;2022-11-20T00:29:53;-5.10;99.90
55064;DHT22;40963;52.168;21.296;2022-11-20T00:32:19;-5.10;99.90
55064;DHT22;40963;52.168;21.296;2022-11-20T00:34:45;-5.10;99.90
55064;DHT22;40963;52.168;21.296;2022-11-20T00:37:10;-5.10;99.90
55064;DHT22;40963;52.168;21.296;2022-11-20T00:39:36;-5.10;99.90
55064;DHT22;40963;52.168;21.296;2022-11-20T00:42:01;-5.00;99.90
55064;DHT22;40963;52.168;21.296;2022-11-20T00:44:27;-5.00;99.90
55064;DHT22;40963;52.168;21.296;2022-11-20T00:46:53;-5.00;99.90
55064;DHT22;40963;52.168;21.296;2022-11-20T00:49:18;-5.00;99.90
55064;DHT22;40963;52.168;21.296;2022-11-20T00:51:44;-5.00;99.90
55064;DHT22;40963;52.168;21.296;2022-11-20T00:54:10;-4.90;99.90
55064;DHT22;40963;52.168;21.296;2022-11-20T00:56:35;-5.00;99.90
55064;DHT22;40963;52.168;21.296;2022-11-20T00:59:01;-5.00;99.90
55064;DHT22;40963;52.168;21.296;2022-11-20T01:01:27;-5.00;99.90
55064;DHT22;40963;52.168;21.296;2022-11-20T01:03:57;-5.00;99.90
55064;DHT22;40963;52.168;21.296;2022-11-20T01:06:28;-5.00;99.90
55064;DHT22;40963;52.168;21.296;2022-11-20T01:08:57;-5.00;99.90
55064;DHT22;40963;52.168;21.296;2022-11-20T01:11:25;-5.10;99.90
55064;DHT22;40963;52.168;21.296;2022-11-20T01:13:52;-5.10;99.90
55064;DHT22;40963;52.168;21.296;2022-11-20T01:16:20;-5.20;99.90
55064;DHT22;40963;52.168;21.296;2022-11-20T01:18:48;-5.10;99.90
55064;DHT22;40963;52.168;21.296;2022-11-20T01:21:19;-5.20;99.90
55064;DHT22;40963;52.168;21.296;2022-11-20T01:23:45;-5.20;99.90
55064;DHT22;40963;52.168;21.296;2022-11-20T01:26:14;-5.20;99.90
55064;DHT22;40963;52.168;21.296;2022-11-20T01:28:40;-5.30;99.90
55064;DHT22;40963;52.168;21.296;2022-11-20T01:31:20;-5.30;99.90
55064;DHT22;40963;52.168;21.296;2022-11-20T01:33:48;-5.30;99.90
55064;DHT22;40963;52.168;21.296;2022-11-20T01:36:16;-5.30;99.90
55064;DHT22;40963;52.168;21.296;2022-11-20T01:38:42;-5.30;99.90
55064;DHT22;40963;52.168;21.296;2022-11-20T01:41:09;-5.40;99.90
55064;DHT22;40963;52.168;21.296;2022-11-20T01:43:35;-5.40;99.90
55064;DHT22;40963;52.168;21.296;2022-11-20T01:46:14;-5.40;99.90
55064;DHT22;40963;52.168;21.296;2022-11-20T01:48:45;-5.40;99.90
55064;DHT22;40963;52.168;21.296;2022-11-20T01:51:39;-5.40;99.90
55064;DHT22;40963;52.168;21.296;2022-11-20T01:54:06;-5.40;99.90
55064;DHT22;40963;52.168;21.296;2022-11-20T01:56:37;-5.40;99.90
55064;DHT22;40963;52.168;21.296;2022-11-20T01:59:05;-5.40;99.90
55064;DHT22;40963;52.168;21.296;2022-11-20T02:01:33;-5.40;99.90
55064;DHT22;40963;52.168;21.296;2022-11-20T02:03:59;-5.50;99.90
55064;DHT22;40963;52.168;21.296;2022-11-20T02:06:42;-5.50;99.90
55064;DHT22;40963;52.168;21.296;2022-11-20T02:09:09;-5.50;99.90
55064;DHT22;40963;52.168;21.296;2022-11-20T02:11:35;-5.50;99.90
55064;DHT22;40963;52.168;21.296;2022-11-20T02:14:01;-5.50;99.90
55064;DHT22;40963;52.168;21.296;2022-11-20T02:16:53;-5.50;99.90
55064;DHT22;40963;52.168;21.296;2022-11-20T02:22:07;-5.50;99.90
55064;DHT22;40963;52.168;21.296;2022-11-20T02:24:34;-5.50;99.90
55064;DHT22;40963;52.168;21.296;2022-11-20T02:27:10;-5.40;99.90
55064;DHT22;40963;52.168;21.296;2022-11-20T02:29:51;-5.40;99.90
55064;DHT22;40963;52.168;21.296;2022-11-20T02:34:51;-5.30;99.90
55064;DHT22;40963;52.168;21.296;2022-11-20T02:37:18;-5.30;99.90
55064;DHT22;40963;52.168;21.296;2022-11-20T02:39:46;-5.30;99.90
55064;DHT22;40963;52.168;21.296;2022-11-20T02:42:13;-5.30;99.90
55064;DHT22;40963;52.168;21.296;2022-11-20T02:44:38;-5.30;99.90
55064;DHT22;40963;52.168;21.296;2022-11-20T02:47:04;-5.30;99.90
55064;DHT22;40963;52.168;21.296;2022-11-20T02:49:30;-5.30;99.90
55064;DHT22;40963;52.168;21.296;2022-11-20T02:51:55;-5.30;99.90
55064;DHT22;40963;52.168;21.296;2022-11-20T02:54:22;-5.30;99.90
55064;DHT22;40963;52.168;21.296;2022-11-20T02:56:47;-5.30;99.90
55064;DHT22;40963;52.168;21.296;2022-11-20T02:59:13;-5.20;99.90
55064;DHT22;40963;52.168;21.296;2022-11-20T03:01:39;-5.20;99.90
55064;DHT22;40963;52.168;21.296;2022-11-20T03:04:04;-5.20;99.90
55064;DHT22;40963;52.168;21.296;2022-11-20T03:06:30;-5.20;99.90
55064;DHT22;40963;52.168;21.296;2022-11-20T03:08:56;-5.10;99.90
55064;DHT22;40963;52.168;21.296;2022-11-20T03:11:21;-5.10;99.90
55064;DHT22;40963;52.168;21.296;2022-11-20T03:13:48;-5.10;99.90
55064;DHT22;40963;52.168;21.296;2022-11-20T03:16:17;-5.10;99.90
55064;DHT22;40963;52.168;21.296;2022-11-20T03:18:44;-5.00;99.90
55064;DHT22;40963;52.168;21.296;2022-11-20T03:21:11;-5.00;99.90
55064;DHT22;40963;52.168;21.296;2022-11-20T03:23:37;-5.00;99.90
55064;DHT22;40963;52.168;21.296;2022-11-20T03:26:20;-5.00;99.90
55064;DHT22;40963;52.168;21.296;2022-11-20T03:28:54;-5.10;99.90
55064;DHT22;40963;52.168;21.296;2022-11-20T03:31:26;-5.10;99.90
55064;DHT22;40963;52.168;21.296;2022-11-20T03:33:52;-5.10;99.90
55064;DHT22;40963;52.168;21.296;2022-11-20T03:36:19;-5.10;99.90
55064;DHT22;40963;52.168;21.296;2022-11-20T03:38:45;-5.10;99.90
55064;DHT22;40963;52.168;21.296;2022-11-20T03:41:20;-5.20;99.90
55064;DHT22;40963;52.168;21.296;2022-11-20T03:43:55;-5.30;99.90
55064;DHT22;40963;52.168;21.296;2022-11-20T03:46:22;-5.30;99.90
55064;DHT22;40963;52.168;21.296;2022-11-20T03:48:48;-5.30;99.90
55064;DHT22;40963;52.168;21.296;2022-11-20T03:53:42;-5.30;99.90
55064;DHT22;40963;52.168;21.296;2022-11-20T03:56:08;-5.40;99.90
55064;DHT22;40963;52.168;21.296;2022-11-20T03:58:37;-5.40;99.90
55064;DHT22;40963;52.168;21.296;2022-11-20T04:01:09;-5.40;99.90
55064;DHT22;40963;52.168;21.296;2022-11-20T04:03:37;-5.40;99.90
55064;DHT22;40963;52.168;21.296;2022-11-20T04:06:13;-5.40;99.90
55064;DHT22;40963;52.168;21.296;2022-11-20T04:08:39;-5.40;99.90
55064;DHT22;40963;52.168;21.296;2022-11-20T04:11:29;-5.50;99.90
55064;DHT22;40963;52.168;21.296;2022-11-20T04:14:00;-5.50;99.90
55064;DHT22;40963;52.168;21.296;2022-11-20T04:16:28;-5.50;99.90
55064;DHT22;40963;52.168;21.296;2022-11-20T04:18:55;-5.50;99.90
55064;DHT22;40963;52.168;21.296;2022-11-20T04:21:22;-5.50;99.90
55064;DHT22;40963;52.168;21.296;2022-11-20T04:23:48;-5.50;99.90
55064;DHT22;40963;52.168;21.296;2022-11-20T04:26:14;-5.50;99.90
55064;DHT22;40963;52.168;21.296;2022-11-20T04:28:40;-5.50;99.90
55064;DHT22;40963;52.168;21.296;2022-11-20T04:31:14;-5.50;99.90
55064;DHT22;40963;52.168;21.296;2022-11-20T04:33:40;-5.50;99.90
55064;DHT22;40963;52.168;21.296;2022-11-20T04:36:07;-5.50;99.90
55064;DHT22;40963;52.168;21.296;2022-11-20T04:38:35;-5.50;99.90
55064;DHT22;40963;52.168;21.296;2022-11-20T04:41:03;-5.50;99.90
55064;DHT22;40963;52.168;21.296;2022-11-20T04:43:30;-5.60;99.90
55064;DHT22;40963;52.168;21.296;2022-11-20T04:45:57;-5.50;99.90
55064;DHT22;40963;52.168;21.296;2022-11-20T04:48:23;-5.50;99.90
55064;DHT22;40963;52.168;21.296;2022-11-20T04:50:49;-5.50;99.90
55064;DHT22;40963;52.168;21.296;2022-11-20T04:53:15;-5.50;99.90
55064;DHT22;40963;52.168;21.296;2022-11-20T04:55:41;-5.50;99.90
55064;DHT22;40963;52.168;21.296;2022-11-20T04:58:07;-5.50;99.90
55064;DHT22;40963;52.168;21.296;2022-11-20T05:00:32;-5.50;99.90
55064;DHT22;40963;52.168;21.296;2022-11-20T05:02:58;-5.50;99.90
55064;DHT22;40963;52.168;21.296;2022-11-20T05:05:24;-5.50;99.90
55064;DHT22;40963;52.168;21.296;2022-11-20T05:07:49;-5.50;99.90
55064;DHT22;40963;52.168;21.296;2022-11-20T05:10:15;-5.50;99.90
55064;DHT22;40963;52.168;21.296;2022-11-20T05:12:41;-5.50;99.90
55064;DHT22;40963;52.168;21.296;2022-11-20T05:15:07;-5.50;99.90
55064;DHT22;40963;52.168;21.296;2022-11-20T05:17:33;-5.50;99.90
55064;DHT22;40963;52.168;21.296;2022-11-20T05:19:58;-5.50;99.90
55064;DHT22;40963;52.168;21.296;2022-11-20T05:22:24;-5.50;99.90
55064;DHT22;40963;52.168;21.296;2022-11-20T05:24:50;-5.50;99.90
55064;DHT22;40963;52.168;21.296;2022-11-20T05:27:15;-5.60;99.90
55064;DHT22;40963;52.168;21.296;2022-11-20T05:29:41;-5.60;99.90
55064;DHT22;40963;52.168;21.296;2022-11-20T05:32:07;-5.70;99.90
55064;DHT22;40963;52.168;21.296;2022-11-20T05:34:35;-5.70;99.90
55064;DHT22;40963;52.168;21.296;2022-11-20T05:37:01;-5.70;99.90
55064;DHT22;40963;52.168;21.296;2022-11-20T05:39:27;-5.80;99.90
55064;DHT22;40963;52.168;21.296;2022-11-20T05:41:53;-5.80;99.90
55064;DHT22;40963;52.168;21.296;2022-11-20T05:44:39;-5.90;99.90
55064;DHT22;40963;52.168;21.296;2022-11-20T05:47:05;-6.00;99.90
55064;DHT22;40963;52.168;21.296;2022-11-20T05:49:30;-6.00;99.90
55064;DHT22;40963;52.168;21.296;2022-11-20T05:51:56;-6.00;99.90
55064;DHT22;40963;52.168;21.296;2022-11-20T05:54:22;-6.10;99.90
55064;DHT22;40963;52.168;21.296;2022-11-20T05:56:47;-6.10;99.90
55064;DHT22;40963;52.168;21.296;2022-11-20T05:59:13;-6.10;99.90
55064;DHT22;40963;52.168;21.296;2022-11-20T06:01:39;-6.10;99.90
55064;DHT22;40963;52.168;21.296;2022-11-20T06:04:04;-6.20;99.90
55064;DHT22;40963;52.168;21.296;2022-11-20T06:06:30;-6.20;99.90
55064;DHT22;40963;52.168;21.296;2022-11-20T06:08:56;-6.20;99.90
55064;DHT22;40963;52.168;21.296;2022-11-20T06:11:21;-6.30;99.90
55064;DHT22;40963;52.168;21.296;2022-11-20T06:13:47;-6.30;99.90
55064;DHT22;40963;52.168;21.296;2022-11-20T06:16:16;-6.30;99.90
55064;DHT22;40963;52.168;21.296;2022-11-20T06:18:42;-6.30;99.90
55064;DHT22;40963;52.168;21.296;2022-11-20T06:21:12;-6.30;99.90
55064;DHT22;40963;52.168;21.296;2022-11-20T06:23:38;-6.30;99.90
55064;DHT22;40963;52.168;21.296;2022-11-20T06:26:05;-6.30;99.90
55064;DHT22;40963;52.168;21.296;2022-11-20T06:28:32;-6.30;99.90
55064;DHT22;40963;52.168;21.296;2022-11-20T06:30:58;-6.30;99.90
55064;DHT22;40963;52.168;21.296;2022-11-20T06:33:23;-6.30;99.90
55064;DHT22;40963;52.168;21.296;2022-11-20T06:35:49;-6.20;99.90
55064;DHT22;40963;52.168;21.296;2022-11-20T06:38:15;-6.20;99.90
55064;DHT22;40963;52.168;21.296;2022-11-20T06:40:41;-6.20;99.90
55064;DHT22;40963;52.168;21.296;2022-11-20T06:43:08;-6.10;99.90
55064;DHT22;40963;52.168;21.296;2022-11-20T06:45:33;-6.00;99.90
55064;DHT22;40963;52.168;21.296;2022-11-20T06:47:59;-6.00;99.90
55064;DHT22;40963;52.168;21.296;2022-11-20T06:50:25;-5.90;99.90
55064;DHT22;40963;52.168;21.296;2022-11-20T06:52:50;-5.80;99.90
55064;DHT22;40963;52.168;21.296;2022-11-20T06:55:16;-5.80;99.90
55064;DHT22;40963;52.168;21.296;2022-11-20T06:57:42;-5.70;99.90
55064;DHT22;40963;52.168;21.296;2022-11-20T07:00:08;-5.60;99.90
55064;DHT22;40963;52.168;21.296;2022-11-20T07:02:34;-5.60;99.90
55064;DHT22;40963;52.168;21.296;2022-11-20T07:04:59;-5.50;99.90
55064;DHT22;40963;52.168;21.296;2022-11-20T07:07:25;-5.40;99.90
55064;DHT22;40963;52.168;21.296;2022-11-20T07:09:51;-5.40;99.90
55064;DHT22;40963;52.168;21.296;2022-11-20T07:12:16;-5.30;99.90
55064;DHT22;40963;52.168;21.296;2022-11-20T07:14:42;-5.30;99.90
55064;DHT22;40963;52.168;21.296;2022-11-20T07:17:07;-5.20;99.90
55064;DHT22;40963;52.168;21.296;2022-11-20T07:19:33;-5.10;99.90
55064;DHT22;40963;52.168;21.296;2022-11-20T07:21:59;-5.00;99.90
55064;DHT22;40963;52.168;21.296;2022-11-20T07:24:24;-4.90;99.90
55064;DHT22;40963;52.168;21.296;2022-11-20T07:26:50;-4.80;99.90
55064;DHT22;40963;52.168;21.296;2022-11-20T07:29:16;-4.70;99.90
55064;DHT22;40963;52.168;21.296;2022-11-20T07:31:42;-4.60;99.90
55064;DHT22;40963;52.168;21.296;2022-11-20T07:34:08;-4.60;99.90
55064;DHT22;40963;52.168;21.296;2022-11-20T07:36:34;-4.50;99.90
55064;DHT22;40963;52.168;21.296;2022-11-20T07:38:59;-4.40;99.90
55064;DHT22;40963;52.168;21.296;2022-11-20T07:41:25;-4.30;99.90
55064;DHT22;40963;52.168;21.296;2022-11-20T07:43:50;-4.20;99.90
55064;DHT22;40963;52.168;21.296;2022-11-20T07:46:16;-4.10;99.90
55064;DHT22;40963;52.168;21.296;2022-11-20T07:48:42;-4.00;99.90
55064;DHT22;40963;52.168;21.296;2022-11-20T07:51:08;-4.00;99.90
55064;DHT22;40963;52.168;21.296;2022-11-20T07:53:33;-3.90;99.90
55064;DHT22;40963;52.168;21.296;2022-11-20T07:56:00;-3.80;99.90
55064;DHT22;40963;52.168;21.296;2022-11-20T07:58:26;-3.70;99.90
55064;DHT22;40963;52.168;21.296;2022-11-20T08:00:53;-3.60;99.90
55064;DHT22;40963;52.168;21.296;2022-11-20T08:03:19;-3.50;99.90
55064;DHT22;40963;52.168;21.296;2022-11-20T08:05:45;-3.40;99.90
55064;DHT22;40963;52.168;21.296;2022-11-20T08:08:10;-3.30;99.90
55064;DHT22;40963;52.168;21.296;2022-11-20T08:10:36;-3.20;99.90
55064;DHT22;40963;52.168;21.296;2022-11-20T08:13:02;-3.10;99.90
55064;DHT22;40963;52.168;21.296;2022-11-20T08:15:50;-3.00;99.90
55064;DHT22;40963;52.168;21.296;2022-11-20T08:18:19;-2.90;99.90
55064;DHT22;40963;52.168;21.296;2022-11-20T08:20:45;-2.80;99.90
55064;DHT22;40963;52.168;21.296;2022-11-20T08:23:11;-2.60;99.90
55064;DHT22;40963;52.168;21.296;2022-11-20T08:25:37;-2.50;99.90
55064;DHT22;40963;52.168;21.296;2022-11-20T08:28:08;-2.50;99.90
55064;DHT22;40963;52.168;21.296;2022-11-20T08:30:36;-2.40;99.90
55064;DHT22;40963;52.168;21.296;2022-11-20T08:33:04;-2.30;99.90
55064;DHT22;40963;52.168;21.296;2022-11-20T08:35:35;-2.20;99.90
55064;DHT22;40963;52.168;21.296;2022-11-20T08:38:05;-2.10;99.90
55064;DHT22;40963;52.168;21.296;2022-11-20T08:40:31;-1.90;99.90
55064;DHT22;40963;52.168;21.296;2022-11-20T08:42:57;-1.90;99.90
55064;DHT22;40963;52.168;21.296;2022-11-20T08:45:23;-1.80;99.90
55064;DHT22;40963;52.168;21.296;2022-11-20T08:47:49;-1.70;99.90
55064;DHT22;40963;52.168;21.296;2022-11-20T08:50:15;-1.60;99.90
55064;DHT22;40963;52.168;21.296;2022-11-20T08:52:41;-1.50;99.90
55064;DHT22;40963;52.168;21.296;2022-11-20T08:55:08;-1.40;99.90
55064;DHT22;40963;52.168;21.296;2022-11-20T08:57:35;-1.30;99.90
55064;DHT22;40963;52.168;21.296;2022-11-20T09:00:01;-1.20;99.90
55064;DHT22;40963;52.168;21.296;2022-11-20T09:02:28;-1.20;99.90
55064;DHT22;40963;52.168;21.296;2022-11-20T09:04:53;-1.10;99.90
55064;DHT22;40963;52.168;21.296;2022-11-20T09:07:19;-1.00;99.90
55064;DHT22;40963;52.168;21.296;2022-11-20T09:09:45;-0.90;99.90
55064;DHT22;40963;52.168;21.296;2022-11-20T09:12:11;-0.90;99.90
55064;DHT22;40963;52.168;21.296;2022-11-20T09:14:36;-0.80;99.90
55064;DHT22;40963;52.168;21.296;2022-11-20T09:17:02;-0.80;99.90
55064;DHT22;40963;52.168;21.296;2022-11-20T09:19:28;-0.80;99.90
55064;DHT22;40963;52.168;21.296;2022-11-20T09:21:53;-0.70;99.90
55064;DHT22;40963;52.168;21.296;2022-11-20T09:24:19;-0.60;99.90
55064;DHT22;40963;52.168;21.296;2022-11-20T09:26:46;-0.50;99.90
55064;DHT22;40963;52.168;21.296;2022-11-20T09:29:12;-0.50;99.90
55064;DHT22;40963;52.168;21.296;2022-11-20T09:31:37;-0.40;99.90
55064;DHT22;40963;52.168;21.296;2022-11-20T09:34:03;-0.40;99.90
55064;DHT22;40963;52.168;21.296;2022-11-20T09:36:29;-0.40;99.90
55064;DHT22;40963;52.168;21.296;2022-11-20T09:38:54;-0.30;99.90
55064;DHT22;40963;52.168;21.296;2022-11-20T09:52:17;0.10;99.90
55064;DHT22;40963;52.168;21.296;2022-11-20T09:54:48;0.10;99.90
55064;DHT22;40963;52.168;21.296;2022-11-20T09:57:18;0.20;99.90
55064;DHT22;40963;52.168;21.296;2022-11-20T10:00:00;0.30;99.90
55064;DHT22;40963;52.168;21.296;2022-11-20T10:03:23;0.30;99.90
55064;DHT22;40963;52.168;21.296;2022-11-20T10:05:31;0.40;99.90
55064;DHT22;40963;52.168;21.296;2022-11-20T10:11:11;0.60;99.90
55064;DHT22;40963;52.168;21.296;2022-11-20T10:19:06;0.70;99.90
55064;DHT22;40963;52.168;21.296;2022-11-20T10:30:09;0.80;99.90
55064;DHT22;40963;52.168;21.296;2022-11-20T10:32:41;0.90;99.90
55064;DHT22;40963;52.168;21.296;2022-11-20T10:35:20;0.90;99.90
55064;DHT22;40963;52.168;21.296;2022-11-20T10:37:53;1.00;99.90
55064;DHT22;40963;52.168;21.296;2022-11-20T10:40:44;1.00;99.90
55064;DHT22;40963;52.168;21.296;2022-11-20T10:43:15;1.10;99.90
55064;DHT22;40963;52.168;21.296;2022-11-20T10:46:01;1.10;99.90
55064;DHT22;40963;52.168;21.296;2022-11-20T10:48:31;1.20;99.90
55064;DHT22;40963;52.168;21.296;2022-11-20T10:51:30;1.20;99.90
55064;DHT22;40963;52.168;21.296;2022-11-20T10:57:30;1.30;99.90
55064;DHT22;40963;52.168;21.296;2022-11-20T11:00:06;1.30;99.90
55064;DHT22;40963;52.168;21.296;2022-11-20T11:02:52;1.40;99.90
55064;DHT22;40963;52.168;21.296;2022-11-20T11:05:36;1.40;99.90
55064;DHT22;40963;52.168;21.296;2022-11-20T11:08:04;1.40;99.90
55064;DHT22;40963;52.168;21.296;2022-11-20T11:10:59;1.50;99.90
55064;DHT22;40963;52.168;21.296;2022-11-20T11:13:28;1.60;99.90
55064;DHT22;40963;52.168;21.296;2022-11-20T11:15:55;1.60;99.90
55064;DHT22;40963;52.168;21.296;2022-11-20T11:18:32;1.60;99.90
55064;DHT22;40963;52.168;21.296;2022-11-20T11:21:01;1.70;99.90
55064;DHT22;40963;52.168;21.296;2022-11-20T11:23:31;1.60;99.90
55064;DHT22;40963;52.168;21.296;2022-11-20T11:25:58;1.70;99.90
55064;DHT22;40963;52.168;21.296;2022-11-20T11:28:25;1.70;99.90
55064;DHT22;40963;52.168;21.296;2022-11-20T11:30:53;1.70;99.90
55064;DHT22;40963;52.168;21.296;2022-11-20T11:33:24;1.70;99.90
55064;DHT22;40963;52.168;21.296;2022-11-20T11:36:04;1.70;99.80
55064;DHT22;40963;52.168;21.296;2022-11-20T11:38:41;1.70;99.70
55064;DHT22;40963;52.168;21.296;2022-11-20T11:41:24;1.80;99.70
55064;DHT22;40963;52.168;21.296;2022-11-20T11:44:19;1.80;99.50
55064;DHT22;40963;52.168;21.296;2022-11-20T11:47:05;1.80;99.50
55064;DHT22;40963;52.168;21.296;2022-11-20T11:49:31;1.80;99.40
55064;DHT22;40963;52.168;21.296;2022-11-20T11:54:55;1.90;99.10
55064;DHT22;40963;52.168;21.296;2022-11-20T12:00:16;1.90;98.80
55064;DHT22;40963;52.168;21.296;2022-11-20T12:05:25;1.90;98.70
55064;DHT22;40963;52.168;21.296;2022-11-20T12:08:16;1.90;98.40
55064;DHT22;40963;52.168;21.296;2022-11-20T12:13:53;1.80;98.50
55064;DHT22;40963;52.168;21.296;2022-11-20T12:16:20;1.90;98.50
55064;DHT22;40963;52.168;21.296;2022-11-20T12:18:49;1.90;98.50
55064;DHT22;40963;52.168;21.296;2022-11-20T12:24:06;1.90;98.40
55064;DHT22;40963;52.168;21.296;2022-11-20T12:29:27;1.90;98.10
55064;DHT22;40963;52.168;21.296;2022-11-20T12:37:48;1.90;98.00
55064;DHT22;40963;52.168;21.296;2022-11-20T12:43:01;1.90;98.10
55064;DHT22;40963;52.168;21.296;2022-11-20T12:45:53;1.90;98.00
55064;DHT22;40963;52.168;21.296;2022-11-20T12:48:32;1.80;98.00
55064;DHT22;40963;52.168;21.296;2022-11-20T13:04:39;1.70;98.00
55064;DHT22;40963;52.168;21.296;2022-11-20T13:07:10;1.80;98.10
55064;DHT22;40963;52.168;21.296;2022-11-20T13:09:41;1.70;98.00
55064;DHT22;40963;52.168;21.296;2022-11-20T13:17:40;1.70;98.10
55064;DHT22;40963;52.168;21.296;2022-11-20T13:20:14;1.60;98.10
55064;DHT22;40963;52.168;21.296;2022-11-20T13:25:24;1.60;98.00
55064;DHT22;40963;52.168;21.296;2022-11-20T13:27:50;1.50;98.00
55064;DHT22;40963;52.168;21.296;2022-11-20T13:30:27;1.50;98.00
55064;DHT22;40963;52.168;21.296;2022-11-20T13:32:55;1.40;98.00
55064;DHT22;40963;52.168;21.296;2022-11-20T13:35:30;1.30;98.10
55064;DHT22;40963;52.168;21.296;2022-11-20T13:40:31;1.20;98.30
55064;DHT22;40963;52.168;21.296;2022-11-20T13:43:21;1.20;98.40
55064;DHT22;40963;52.168;21.296;2022-11-20T13:46:05;1.10;98.60
55064;DHT22;40963;52.168;21.296;2022-11-20T13:48:43;1.10;98.70
55064;DHT22;40963;52.168;21.296;2022-11-20T14:02:17;0.80;98.90
55064;DHT22;40963;52.168;21.296;2022-11-20T14:04:47;0.80;99.00
55064;DHT22;40963;52.168;21.296;2022-11-20T14:07:14;0.80;99.10
55064;DHT22;40963;52.168;21.296;2022-11-20T14:09:52;0.70;99.10
55064;DHT22;40963;52.168;21.296;2022-11-20T14:12:20;0.60;99.20
55064;DHT22;40963;52.168;21.296;2022-11-20T14:14:51;0.60;99.40
55064;DHT22;40963;52.168;21.296;2022-11-20T14:17:23;0.60;99.50
55064;DHT22;40963;52.168;21.296;2022-11-20T14:19:51;0.50;99.70
55064;DHT22;40963;52.168;21.296;2022-11-20T14:22:20;0.50;99.90
55064;DHT22;40963;52.168;21.296;2022-11-20T14:27:34;0.30;99.90
55064;DHT22;40963;52.168;21.296;2022-11-20T14:30:02;0.20;99.90
55064;DHT22;40963;52.168;21.296;2022-11-20T14:32:29;0.20;99.90
55064;DHT22;40963;52.168;21.296;2022-11-20T14:34:59;0.10;99.90
55064;DHT22;40963;52.168;21.296;2022-11-20T14:37:29;0.00;99.90
55064;DHT22;40963;52.168;21.296;2022-11-20T14:39:55;0.00;99.90
55064;DHT22;40963;52.168;21.296;2022-11-20T14:42:22;0.00;99.90
55064;DHT22;40963;52.168;21.296;2022-11-20T14:44:50;-0.10;99.90
55064;DHT22;40963;52.168;21.296;2022-11-20T14:47:19;-0.20;99.90
55064;DHT22;40963;52.168;21.296;2022-11-20T14:49:47;-0.20;99.90
55064;DHT22;40963;52.168;21.296;2022-11-20T14:52:25;-0.30;99.90
55064;DHT22;40963;52.168;21.296;2022-11-20T14:54:53;-0.30;99.90
55064;DHT22;40963;52.168;21.296;2022-11-20T14:57:45;-0.30;99.90
55064;DHT22;40963;52.168;21.296;2022-11-20T15:00:21;-0.40;99.90
55064;DHT22;40963;52.168;21.296;2022-11-20T15:02:49;-0.40;99.90
55064;DHT22;40963;52.168;21.296;2022-11-20T15:05:16;-0.50;99.90
55064;DHT22;40963;52.168;21.296;2022-11-20T15:07:45;-0.50;99.90
55064;DHT22;40963;52.168;21.296;2022-11-20T15:10:27;-0.50;99.90
55064;DHT22;40963;52.168;21.296;2022-11-20T15:12:54;-0.60;99.90
55064;DHT22;40963;52.168;21.296;2022-11-20T15:15:40;-0.60;99.90
55064;DHT22;40963;52.168;21.296;2022-11-20T15:18:39;-0.70;99.90
55064;DHT22;40963;52.168;21.296;2022-11-20T15:21:17;-0.70;99.90
55064;DHT22;40963;52.168;21.296;2022-11-20T15:23:44;-0.70;99.90
55064;DHT22;40963;52.168;21.296;2022-11-20T15:26:11;-0.70;99.90
55064;DHT22;40963;52.168;21.296;2022-11-20T15:28:42;-0.80;99.90
55064;DHT22;40963;52.168;21.296;2022-11-20T15:31:12;-0.80;99.90
55064;DHT22;40963;52.168;21.296;2022-11-20T15:33:38;-0.80;99.90
55064;DHT22;40963;52.168;21.296;2022-11-20T15:36:04;-0.80;99.90
55064;DHT22;40963;52.168;21.296;2022-11-20T15:38:29;-0.80;99.90
55064;DHT22;40963;52.168;21.296;2022-11-20T15:40:55;-0.80;99.90
55064;DHT22;40963;52.168;21.296;2022-11-20T15:43:21;-0.80;99.90
55064;DHT22;40963;52.168;21.296;2022-11-20T15:46:13;-0.80;99.90
55064;DHT22;40963;52.168;21.296;2022-11-20T15:48:44;-0.80;99.90
55064;DHT22;40963;52.168;21.296;2022-11-20T15:53:36;-0.80;99.90
55064;DHT22;40963;52.168;21.296;2022-11-20T15:56:02;-0.80;99.90
55064;DHT22;40963;52.168;21.296;2022-11-20T15:58:28;-0.80;99.90
55064;DHT22;40963;52.168;21.296;2022-11-20T16:00:54;-0.80;99.90
55064;DHT22;40963;52.168;21.296;2022-11-20T16:03:20;-0.80;99.90
55064;DHT22;40963;52.168;21.296;2022-11-20T16:05:46;-0.80;99.90
55064;DHT22;40963;52.168;21.296;2022-11-20T16:08:12;-0.70;99.90
55064;DHT22;40963;52.168;21.296;2022-11-20T16:10:38;-0.80;99.90
55064;DHT22;40963;52.168;21.296;2022-11-20T16:13:04;-0.80;99.90
55064;DHT22;40963;52.168;21.296;2022-11-20T16:15:53;-0.80;99.90
55064;DHT22;40963;52.168;21.296;2022-11-20T16:18:21;-0.80;99.90
55064;DHT22;40963;52.168;21.296;2022-11-20T16:20:52;-0.80;99.90
55064;DHT22;40963;52.168;21.296;2022-11-20T16:23:18;-0.80;99.90
55064;DHT22;40963;52.168;21.296;2022-11-20T16:25:44;-0.80;99.90
55064;DHT22;40963;52.168;21.296;2022-11-20T16:28:10;-0.80;99.90
55064;DHT22;40963;52.168;21.296;2022-11-20T16:30:36;-0.90;99.90
55064;DHT22;40963;52.168;21.296;2022-11-20T16:33:03;-0.90;99.90
55064;DHT22;40963;52.168;21.296;2022-11-20T16:35:30;-1.00;99.90
55064;DHT22;40963;52.168;21.296;2022-11-20T16:37:57;-1.00;99.90
55064;DHT22;40963;52.168;21.296;2022-11-20T16:40:23;-1.10;99.90
55064;DHT22;40963;52.168;21.296;2022-11-20T16:42:49;-1.10;99.90
55064;DHT22;40963;52.168;21.296;2022-11-20T16:45:15;-1.10;99.90
55064;DHT22;40963;52.168;21.296;2022-11-20T16:47:41;-1.20;99.90
55064;DHT22;40963;52.168;21.296;2022-11-20T16:50:07;-1.20;99.90
55064;DHT22;40963;52.168;21.296;2022-11-20T16:52:33;-1.20;99.90
55064;DHT22;40963;52.168;21.296;2022-11-20T16:54:59;-1.20;99.90
55064;DHT22;40963;52.168;21.296;2022-11-20T16:57:27;-1.20;99.90
55064;DHT22;40963;52.168;21.296;2022-11-20T16:59:53;-1.30;99.90
55064;DHT22;40963;52.168;21.296;2022-11-20T17:02:18;-1.20;99.90
55064;DHT22;40963;52.168;21.296;2022-11-20T17:04:44;-1.20;99.90
55064;DHT22;40963;52.168;21.296;2022-11-20T17:07:10;-1.20;99.90
55064;DHT22;40963;52.168;21.296;2022-11-20T17:09:37;-1.20;99.90
55064;DHT22;40963;52.168;21.296;2022-11-20T17:12:03;-1.20;99.90
55064;DHT22;40963;52.168;21.296;2022-11-20T17:14:29;-1.20;99.90
55064;DHT22;40963;52.168;21.296;2022-11-20T17:16:54;-1.20;99.90